RYR19DD LEVC-LKTB
Flight info
| Callsign | RYR19DD |
|---|---|
| Flight time | 2h 17m |
| Altitude | 34000 |
| Route | SOPET M985 BCN N870 DIBER UN870 SOSUR/N0457F360 DCT NOSTA DCT ROBAS DCT DETSA/N0459F350 DCT LIMRA DCT LEDVA |
| Aircraft | B738/M-SDE2E3FGHIRWXY/LB1 |
Departure
| Time | 2026-04-17 12:08 |
|---|---|
| Airport | Valencia Airport (LEVC) |
Arrival
| Time | 2026-04-17 14:26 |
|---|---|
| Airport | Brno-Tuřany Airport (LKTB) |
| Time | Latitude | Longitude | Altitude | Speed | Heading |
|---|---|---|---|---|---|
| 2026-04-17 11:45 | 39.49039 | -0.47335 | 205 ft | 0 kts | 12° |
| 2026-04-17 11:59 | 39.49035 | -0.47336 | 191 ft | 3 kts | 12° |
| 2026-04-17 12:00 | 39.49011 | -0.47348 | 191 ft | 4 kts | 24° |
| 2026-04-17 12:00 | 39.48987 | -0.47359 | 201 ft | 4 kts | 8° |
| 2026-04-17 12:00 | 39.48962 | -0.47358 | 194 ft | 4 kts | 332° |
| 2026-04-17 12:00 | 39.48946 | -0.47339 | 203 ft | 1 kts | 296° |
| 2026-04-17 12:01 | 39.48944 | -0.47334 | 202 ft | 1 kts | 296° |
| 2026-04-17 12:03 | 39.48959 | -0.47375 | 205 ft | 11 kts | 296° |
| 2026-04-17 12:03 | 39.49005 | -0.47494 | 198 ft | 19 kts | 300° |
| 2026-04-17 12:04 | 39.49065 | -0.47685 | 203 ft | 27 kts | 278° |
| 2026-04-17 12:04 | 39.49128 | -0.47937 | 209 ft | 32 kts | 297° |
| 2026-04-17 12:04 | 39.49217 | -0.48173 | 207 ft | 20 kts | 297° |
| 2026-04-17 12:04 | 39.49261 | -0.48333 | 213 ft | 19 kts | 250° |
| 2026-04-17 12:05 | 39.49255 | -0.48482 | 217 ft | 18 kts | 296° |
| 2026-04-17 12:05 | 39.49310 | -0.48626 | 221 ft | 18 kts | 296° |
| 2026-04-17 12:05 | 39.49364 | -0.48771 | 218 ft | 18 kts | 295° |
| 2026-04-17 12:05 | 39.49420 | -0.48915 | 221 ft | 20 kts | 296° |
| 2026-04-17 12:06 | 39.49501 | -0.49125 | 223 ft | 31 kts | 297° |
| 2026-04-17 12:06 | 39.49610 | -0.49412 | 227 ft | 40 kts | 296° |
| 2026-04-17 12:06 | 39.49734 | -0.49741 | 237 ft | 34 kts | 296° |
| 2026-04-17 12:06 | 39.49772 | -0.49840 | 240 ft | 1 kts | 296° |
| 2026-04-17 12:07 | 39.49794 | -0.49903 | 242 ft | 14 kts | 290° |
| 2026-04-17 12:07 | 39.49712 | -0.50008 | 246 ft | 24 kts | 205° |
| 2026-04-17 12:07 | 39.49611 | -0.49949 | 242 ft | 23 kts | 112° |
| 2026-04-17 12:07 | 39.49420 | -0.49446 | 226 ft | 106 kts | 116° |
| 2026-04-17 12:08 | 39.48984 | -0.48308 | 276 ft | 174 kts | 116° |
| 2026-04-17 12:08 | 39.48386 | -0.46766 | 806 ft | 206 kts | 117° |
| 2026-04-17 12:08 | 39.47700 | -0.45034 | 1504 ft | 225 kts | 116° |
| 2026-04-17 12:08 | 39.46949 | -0.43201 | 2360 ft | 232 kts | 127° |
| 2026-04-17 12:09 | 39.45745 | -0.41835 | 3179 ft | 229 kts | 149° |
| 2026-04-17 12:09 | 39.44379 | -0.40766 | 3839 ft | 231 kts | 141° |
| 2026-04-17 12:09 | 39.43394 | -0.39090 | 4264 ft | 242 kts | 111° |
| 2026-04-17 12:09 | 39.42815 | -0.37090 | 5029 ft | 234 kts | 116° |
| 2026-04-17 12:10 | 39.41943 | -0.35354 | 5803 ft | 231 kts | 122° |
| 2026-04-17 12:10 | 39.41010 | -0.33607 | 6158 ft | 247 kts | 125° |
| 2026-04-17 12:10 | 39.39984 | -0.31729 | 6467 ft | 259 kts | 120° |
| 2026-04-17 12:10 | 39.39533 | -0.29518 | 7016 ft | 257 kts | 83° |
| 2026-04-17 12:11 | 39.40208 | -0.27429 | 7591 ft | 254 kts | 47° |
| 2026-04-17 12:11 | 39.41690 | -0.26227 | 8124 ft | 254 kts | 20° |
| 2026-04-17 12:11 | 39.43402 | -0.25567 | 8630 ft | 259 kts | 11° |
| 2026-04-17 12:12 | 39.47104 | -0.24830 | 9446 ft | 285 kts | 7° |
| 2026-04-17 12:12 | 39.49084 | -0.24467 | 10222 ft | 287 kts | 8° |
| 2026-04-17 12:12 | 39.51090 | -0.24088 | 10825 ft | 298 kts | 8° |
| 2026-04-17 12:12 | 39.53196 | -0.23677 | 11001 ft | 322 kts | 8° |
| 2026-04-17 12:13 | 39.55490 | -0.23220 | 11182 ft | 345 kts | 8° |
| 2026-04-17 12:13 | 39.57927 | -0.22726 | 11418 ft | 363 kts | 8° |
| 2026-04-17 12:13 | 39.60465 | -0.22207 | 11838 ft | 374 kts | 8° |
| 2026-04-17 12:13 | 39.63048 | -0.21678 | 12524 ft | 376 kts | 8° |
| 2026-04-17 12:14 | 39.65638 | -0.21113 | 13312 ft | 377 kts | 12° |
| 2026-04-17 12:14 | 39.68076 | -0.19798 | 13872 ft | 386 kts | 32° |
| 2026-04-17 12:14 | 39.70142 | -0.17539 | 14467 ft | 390 kts | 43° |
| 2026-04-17 12:14 | 39.72078 | -0.15040 | 15058 ft | 394 kts | 44° |
| 2026-04-17 12:15 | 39.74017 | -0.12498 | 15604 ft | 398 kts | 44° |
| 2026-04-17 12:15 | 39.75951 | -0.09981 | 16182 ft | 401 kts | 44° |
| 2026-04-17 12:15 | 39.77969 | -0.07380 | 16755 ft | 404 kts | 43° |
| 2026-04-17 12:15 | 39.79953 | -0.04845 | 17298 ft | 408 kts | 43° |
| 2026-04-17 12:16 | 39.82020 | -0.02210 | 17831 ft | 412 kts | 42° |
| 2026-04-17 12:16 | 39.84040 | 0.00374 | 18383 ft | 415 kts | 44° |
| 2026-04-17 12:16 | 39.86051 | 0.03095 | 18860 ft | 418 kts | 45° |
| 2026-04-17 12:16 | 39.88043 | 0.05885 | 19349 ft | 421 kts | 46° |
| 2026-04-17 12:17 | 39.90034 | 0.08694 | 19832 ft | 424 kts | 46° |
| 2026-04-17 12:17 | 39.92048 | 0.11527 | 20315 ft | 426 kts | 46° |
| 2026-04-17 12:17 | 39.94079 | 0.14370 | 20786 ft | 429 kts | 46° |
| 2026-04-17 12:17 | 39.96123 | 0.17219 | 21239 ft | 432 kts | 46° |
| 2026-04-17 12:18 | 39.98189 | 0.20097 | 21694 ft | 435 kts | 46° |
| 2026-04-17 12:18 | 40.00260 | 0.22983 | 22130 ft | 437 kts | 46° |
| 2026-04-17 12:18 | 40.02345 | 0.25891 | 22557 ft | 440 kts | 46° |
| 2026-04-17 12:18 | 40.04443 | 0.28822 | 22978 ft | 443 kts | 46° |
| 2026-04-17 12:19 | 40.06552 | 0.31771 | 23375 ft | 445 kts | 46° |
| 2026-04-17 12:19 | 40.08670 | 0.34735 | 23791 ft | 448 kts | 46° |
| 2026-04-17 12:19 | 40.10801 | 0.37722 | 24111 ft | 450 kts | 46° |
| 2026-04-17 12:19 | 40.12943 | 0.40728 | 24437 ft | 453 kts | 46° |
| 2026-04-17 12:20 | 40.15075 | 0.43721 | 24754 ft | 456 kts | 46° |
| 2026-04-17 12:20 | 40.17238 | 0.46761 | 25067 ft | 458 kts | 46° |
| 2026-04-17 12:20 | 40.19412 | 0.49822 | 25369 ft | 461 kts | 46° |
| 2026-04-17 12:20 | 40.21601 | 0.52904 | 25676 ft | 463 kts | 46° |
| 2026-04-17 12:21 | 40.23795 | 0.55997 | 25973 ft | 465 kts | 46° |
| 2026-04-17 12:21 | 40.26009 | 0.59121 | 26247 ft | 468 kts | 46° |
| 2026-04-17 12:21 | 40.28234 | 0.62263 | 26476 ft | 472 kts | 46° |
| 2026-04-17 12:21 | 40.30468 | 0.65422 | 26753 ft | 474 kts | 46° |
| 2026-04-17 12:22 | 40.32717 | 0.68604 | 27051 ft | 476 kts | 46° |
| 2026-04-17 12:22 | 40.34968 | 0.71794 | 27327 ft | 478 kts | 46° |
| 2026-04-17 12:22 | 40.37233 | 0.75009 | 27592 ft | 480 kts | 46° |
| 2026-04-17 12:22 | 40.39500 | 0.78228 | 27977 ft | 479 kts | 45° |
| 2026-04-17 12:23 | 40.41754 | 0.81434 | 28480 ft | 476 kts | 45° |
| 2026-04-17 12:23 | 40.43992 | 0.84620 | 28919 ft | 475 kts | 45° |
| 2026-04-17 12:23 | 40.46209 | 0.87780 | 29256 ft | 475 kts | 45° |
| 2026-04-17 12:23 | 40.48456 | 0.90985 | 29578 ft | 476 kts | 45° |
| 2026-04-17 12:24 | 40.50698 | 0.94185 | 29949 ft | 476 kts | 45° |
| 2026-04-17 12:24 | 40.52942 | 0.97392 | 30342 ft | 475 kts | 45° |
| 2026-04-17 12:24 | 40.55174 | 1.00586 | 30691 ft | 474 kts | 45° |
| 2026-04-17 12:24 | 40.57403 | 1.03781 | 31004 ft | 474 kts | 45° |
| 2026-04-17 12:25 | 40.59640 | 1.06992 | 31305 ft | 474 kts | 45° |
| 2026-04-17 12:25 | 40.61835 | 1.10148 | 31622 ft | 473 kts | 45° |
| 2026-04-17 12:25 | 40.64051 | 1.13339 | 31952 ft | 472 kts | 45° |
| 2026-04-17 12:25 | 40.66268 | 1.16532 | 32328 ft | 470 kts | 45° |
| 2026-04-17 12:26 | 40.68464 | 1.19698 | 32757 ft | 467 kts | 45° |
| 2026-04-17 12:26 | 40.70657 | 1.22864 | 33057 ft | 467 kts | 45° |
| 2026-04-17 12:26 | 40.72849 | 1.26028 | 33280 ft | 468 kts | 45° |
| 2026-04-17 12:26 | 40.75049 | 1.29205 | 33551 ft | 468 kts | 45° |
| 2026-04-17 12:27 | 40.77241 | 1.32376 | 33878 ft | 467 kts | 45° |
| 2026-04-17 12:27 | 40.79427 | 1.35541 | 34181 ft | 466 kts | 46° |
| 2026-04-17 12:27 | 40.81631 | 1.38735 | 34169 ft | 471 kts | 46° |
| 2026-04-17 12:28 | 40.86043 | 1.45139 | 34178 ft | 471 kts | 46° |
| 2026-04-17 12:28 | 40.90391 | 1.51465 | 34188 ft | 465 kts | 46° |
| 2026-04-17 12:29 | 40.94749 | 1.57819 | 34193 ft | 466 kts | 45° |
| 2026-04-17 12:29 | 40.99101 | 1.64178 | 34187 ft | 466 kts | 45° |
| 2026-04-17 12:30 | 41.03460 | 1.70561 | 34183 ft | 467 kts | 45° |
| 2026-04-17 12:30 | 41.07815 | 1.76950 | 34181 ft | 467 kts | 45° |
| 2026-04-17 12:31 | 41.12139 | 1.83307 | 34183 ft | 467 kts | 45° |
| 2026-04-17 12:31 | 41.16490 | 1.89719 | 34182 ft | 467 kts | 45° |
| 2026-04-17 12:32 | 41.20842 | 1.96150 | 34191 ft | 467 kts | 45° |
| 2026-04-17 12:32 | 41.25190 | 2.02585 | 34183 ft | 467 kts | 45° |
| 2026-04-17 12:33 | 41.29515 | 2.09040 | 34181 ft | 467 kts | 48° |
| 2026-04-17 12:33 | 41.32864 | 2.16482 | 34195 ft | 472 kts | 63° |
| 2026-04-17 12:34 | 41.35543 | 2.24403 | 34186 ft | 472 kts | 64° |
| 2026-04-17 12:34 | 41.38240 | 2.32387 | 34195 ft | 472 kts | 63° |
| 2026-04-17 12:35 | 41.40977 | 2.40361 | 34176 ft | 472 kts | 63° |
| 2026-04-17 12:35 | 41.43705 | 2.48270 | 34181 ft | 472 kts | 63° |
| 2026-04-17 12:37 | 41.54610 | 2.80103 | 34165 ft | 471 kts | 63° |
| 2026-04-17 12:38 | 41.57317 | 2.88064 | 34169 ft | 470 kts | 63° |
| 2026-04-17 12:38 | 41.60012 | 2.96013 | 34174 ft | 470 kts | 63° |
| 2026-04-17 12:39 | 41.62706 | 3.03983 | 34172 ft | 470 kts | 63° |
| 2026-04-17 12:39 | 41.65391 | 3.11949 | 34181 ft | 469 kts | 63° |
| 2026-04-17 12:40 | 41.68053 | 3.19866 | 34174 ft | 469 kts | 63° |
| 2026-04-17 12:40 | 41.70720 | 3.27829 | 34171 ft | 468 kts | 63° |
| 2026-04-17 12:41 | 41.73381 | 3.35792 | 34174 ft | 468 kts | 63° |
| 2026-04-17 12:41 | 41.76035 | 3.43758 | 34176 ft | 468 kts | 63° |
| 2026-04-17 12:42 | 41.78686 | 3.51736 | 34176 ft | 468 kts | 63° |
| 2026-04-17 12:42 | 41.81330 | 3.59718 | 34170 ft | 468 kts | 63° |
| 2026-04-17 12:43 | 41.83956 | 3.67670 | 34172 ft | 469 kts | 63° |
| 2026-04-17 12:43 | 41.86591 | 3.75673 | 34174 ft | 469 kts | 63° |
| 2026-04-17 12:44 | 41.89223 | 3.83688 | 34176 ft | 469 kts | 63° |
| 2026-04-17 12:44 | 41.91405 | 3.90349 | 34171 ft | 469 kts | 63° |
| 2026-04-17 12:45 | 41.94031 | 3.98390 | 34168 ft | 470 kts | 63° |
| 2026-04-17 12:45 | 41.96649 | 4.06433 | 34174 ft | 470 kts | 63° |
| 2026-04-17 12:46 | 41.99263 | 4.14486 | 34171 ft | 470 kts | 63° |
| 2026-04-17 12:46 | 42.01870 | 4.22544 | 34180 ft | 470 kts | 63° |
| 2026-04-17 12:47 | 42.04472 | 4.30607 | 34171 ft | 470 kts | 63° |
| 2026-04-17 12:47 | 42.07154 | 4.38616 | 34163 ft | 467 kts | 57° |
| 2026-04-17 12:48 | 42.11044 | 4.45398 | 34163 ft | 457 kts | 39° |
| 2026-04-17 12:48 | 42.15798 | 4.51055 | 34164 ft | 456 kts | 37° |
| 2026-04-17 12:49 | 42.20581 | 4.56698 | 34166 ft | 456 kts | 38° |
| 2026-04-17 12:49 | 42.25334 | 4.62394 | 34173 ft | 457 kts | 38° |
| 2026-04-17 12:50 | 42.30069 | 4.68121 | 34164 ft | 457 kts | 38° |
| 2026-04-17 12:50 | 42.34807 | 4.73867 | 34158 ft | 457 kts | 38° |
| 2026-04-17 12:51 | 42.39508 | 4.79579 | 34163 ft | 457 kts | 38° |
| 2026-04-17 12:51 | 42.44017 | 4.85717 | 34167 ft | 460 kts | 44° |
| 2026-04-17 12:52 | 42.47967 | 4.91743 | 34163 ft | 461 kts | 45° |
| 2026-04-17 12:52 | 42.52208 | 4.98249 | 34162 ft | 461 kts | 45° |
| 2026-04-17 12:53 | 42.56486 | 5.04721 | 34159 ft | 461 kts | 44° |
| 2026-04-17 12:53 | 42.60785 | 5.11178 | 34150 ft | 461 kts | 44° |
| 2026-04-17 12:54 | 42.65099 | 5.17655 | 34159 ft | 461 kts | 44° |
| 2026-04-17 12:54 | 42.69377 | 5.24093 | 34150 ft | 461 kts | 44° |
| 2026-04-17 12:55 | 42.73675 | 5.30577 | 34144 ft | 462 kts | 44° |
| 2026-04-17 12:55 | 42.77971 | 5.37076 | 34144 ft | 462 kts | 44° |
| 2026-04-17 12:56 | 42.82265 | 5.43586 | 34146 ft | 462 kts | 45° |
| 2026-04-17 12:56 | 42.86553 | 5.50101 | 34146 ft | 461 kts | 45° |
| 2026-04-17 12:57 | 42.90816 | 5.56593 | 34141 ft | 461 kts | 45° |
| 2026-04-17 12:57 | 42.95091 | 5.63119 | 34142 ft | 461 kts | 45° |
| 2026-04-17 12:58 | 42.99367 | 5.69659 | 34141 ft | 461 kts | 45° |
| 2026-04-17 12:58 | 43.03633 | 5.76201 | 34144 ft | 461 kts | 45° |
| 2026-04-17 12:59 | 43.07900 | 5.82758 | 34136 ft | 461 kts | 45° |
| 2026-04-17 12:59 | 43.12168 | 5.89331 | 34122 ft | 461 kts | 45° |
| 2026-04-17 13:00 | 43.16403 | 5.95868 | 34123 ft | 461 kts | 45° |
| 2026-04-17 13:00 | 43.20661 | 6.02455 | 34127 ft | 461 kts | 45° |
| 2026-04-17 13:01 | 43.24917 | 6.09055 | 34140 ft | 461 kts | 45° |
| 2026-04-17 13:01 | 43.29163 | 6.15655 | 34111 ft | 461 kts | 45° |
| 2026-04-17 13:02 | 43.33410 | 6.22273 | 34107 ft | 461 kts | 45° |
| 2026-04-17 13:02 | 43.37655 | 6.28900 | 34100 ft | 461 kts | 45° |
| 2026-04-17 13:03 | 43.41888 | 6.35525 | 34104 ft | 461 kts | 45° |
| 2026-04-17 13:03 | 43.46118 | 6.42160 | 34108 ft | 461 kts | 45° |
| 2026-04-17 13:04 | 43.50313 | 6.48756 | 34110 ft | 461 kts | 46° |
| 2026-04-17 13:04 | 43.54539 | 6.55416 | 34104 ft | 461 kts | 46° |
| 2026-04-17 13:05 | 43.58754 | 6.62074 | 34123 ft | 460 kts | 46° |
| 2026-04-17 13:05 | 43.62962 | 6.68736 | 34111 ft | 460 kts | 46° |
| 2026-04-17 13:06 | 43.67166 | 6.75407 | 34117 ft | 460 kts | 46° |
| 2026-04-17 13:06 | 43.71365 | 6.82085 | 34116 ft | 461 kts | 46° |
| 2026-04-17 13:07 | 43.75565 | 6.88782 | 34127 ft | 460 kts | 46° |
| 2026-04-17 13:07 | 43.79737 | 6.95447 | 34120 ft | 460 kts | 46° |
| 2026-04-17 13:08 | 43.83919 | 7.02147 | 34136 ft | 459 kts | 46° |
| 2026-04-17 13:08 | 43.88064 | 7.08803 | 34132 ft | 459 kts | 46° |
| 2026-04-17 13:09 | 43.92216 | 7.15482 | 34133 ft | 459 kts | 46° |
| 2026-04-17 13:09 | 43.96383 | 7.22204 | 34128 ft | 459 kts | 46° |
| 2026-04-17 13:10 | 44.00550 | 7.28940 | 34144 ft | 460 kts | 46° |
| 2026-04-17 13:10 | 44.04729 | 7.35714 | 34142 ft | 461 kts | 46° |
| 2026-04-17 13:11 | 44.08908 | 7.42501 | 34157 ft | 461 kts | 46° |
| 2026-04-17 13:11 | 44.13078 | 7.49291 | 34154 ft | 461 kts | 46° |
| 2026-04-17 13:12 | 44.17246 | 7.56094 | 34136 ft | 461 kts | 46° |
| 2026-04-17 13:12 | 44.23463 | 7.66273 | 34156 ft | 460 kts | 46° |
| 2026-04-17 13:13 | 44.27612 | 7.73084 | 34135 ft | 461 kts | 46° |
| 2026-04-17 13:13 | 44.31742 | 7.79882 | 34147 ft | 461 kts | 46° |
| 2026-04-17 13:14 | 44.35881 | 7.86711 | 34150 ft | 460 kts | 46° |
| 2026-04-17 13:14 | 44.40023 | 7.93560 | 34143 ft | 460 kts | 46° |
| 2026-04-17 13:15 | 44.44131 | 8.00370 | 34151 ft | 460 kts | 46° |
| 2026-04-17 13:15 | 44.48255 | 8.07222 | 34137 ft | 460 kts | 46° |
| 2026-04-17 13:16 | 44.52370 | 8.14078 | 34127 ft | 459 kts | 46° |
| 2026-04-17 13:16 | 44.56482 | 8.20943 | 34137 ft | 459 kts | 46° |
| 2026-04-17 13:17 | 44.60585 | 8.27810 | 34138 ft | 459 kts | 46° |
| 2026-04-17 13:17 | 44.64667 | 8.34659 | 34146 ft | 459 kts | 46° |
| 2026-04-17 13:18 | 44.68766 | 8.41552 | 34143 ft | 459 kts | 47° |
| 2026-04-17 13:18 | 44.72861 | 8.48457 | 34136 ft | 459 kts | 47° |
| 2026-04-17 13:19 | 44.76953 | 8.55372 | 34134 ft | 459 kts | 47° |
| 2026-04-17 13:19 | 44.81037 | 8.62291 | 34133 ft | 460 kts | 47° |
| 2026-04-17 13:20 | 44.85123 | 8.69231 | 34134 ft | 460 kts | 47° |
| 2026-04-17 13:20 | 44.89181 | 8.76139 | 34138 ft | 460 kts | 47° |
| 2026-04-17 13:21 | 44.93263 | 8.83105 | 34139 ft | 461 kts | 47° |
| 2026-04-17 13:21 | 44.97347 | 8.90093 | 34127 ft | 461 kts | 47° |
| 2026-04-17 13:22 | 45.01429 | 8.97094 | 34156 ft | 461 kts | 47° |
| 2026-04-17 13:22 | 45.05500 | 9.04093 | 34154 ft | 461 kts | 47° |
| 2026-04-17 13:23 | 45.09578 | 9.11121 | 34144 ft | 461 kts | 47° |
| 2026-04-17 13:23 | 45.13619 | 9.18104 | 34139 ft | 461 kts | 47° |
| 2026-04-17 13:24 | 45.17688 | 9.25152 | 34115 ft | 462 kts | 47° |
| 2026-04-17 13:24 | 45.21751 | 9.32208 | 34127 ft | 462 kts | 47° |
| 2026-04-17 13:25 | 45.25816 | 9.39284 | 34119 ft | 462 kts | 47° |
| 2026-04-17 13:25 | 45.29874 | 9.46367 | 34122 ft | 461 kts | 47° |
| 2026-04-17 13:26 | 45.33924 | 9.53452 | 34122 ft | 461 kts | 47° |
| 2026-04-17 13:26 | 45.37935 | 9.60488 | 34138 ft | 461 kts | 47° |
| 2026-04-17 13:27 | 45.41970 | 9.67582 | 34126 ft | 461 kts | 47° |
| 2026-04-17 13:27 | 45.45999 | 9.74685 | 34127 ft | 461 kts | 47° |
| 2026-04-17 13:28 | 45.50026 | 9.81802 | 34131 ft | 461 kts | 47° |
| 2026-04-17 13:28 | 45.54050 | 9.88930 | 34130 ft | 461 kts | 47° |
| 2026-04-17 13:29 | 45.58062 | 9.96057 | 34131 ft | 461 kts | 47° |
| 2026-04-17 13:29 | 45.62046 | 10.03152 | 34136 ft | 460 kts | 47° |
| 2026-04-17 13:30 | 45.66045 | 10.10291 | 34138 ft | 459 kts | 47° |
| 2026-04-17 13:30 | 45.70040 | 10.17442 | 34128 ft | 459 kts | 48° |
| 2026-04-17 13:31 | 45.74014 | 10.24591 | 34179 ft | 457 kts | 48° |
| 2026-04-17 13:31 | 45.77307 | 10.30520 | 34164 ft | 458 kts | 47° |
| 2026-04-17 13:32 | 45.81287 | 10.37677 | 34160 ft | 459 kts | 47° |
| 2026-04-17 13:32 | 45.85267 | 10.44862 | 34163 ft | 459 kts | 47° |
| 2026-04-17 13:33 | 45.89232 | 10.52046 | 34175 ft | 459 kts | 47° |
| 2026-04-17 13:33 | 45.93167 | 10.59194 | 34151 ft | 460 kts | 47° |
| 2026-04-17 13:34 | 45.97133 | 10.66418 | 34199 ft | 460 kts | 47° |
| 2026-04-17 13:34 | 46.01091 | 10.73644 | 34168 ft | 461 kts | 48° |
| 2026-04-17 13:35 | 46.05062 | 10.80915 | 34183 ft | 461 kts | 47° |
| 2026-04-17 13:35 | 46.09004 | 10.88153 | 34191 ft | 458 kts | 47° |
| 2026-04-17 13:36 | 46.12926 | 10.95371 | 34196 ft | 456 kts | 47° |
| 2026-04-17 13:36 | 46.16830 | 11.02574 | 34223 ft | 455 kts | 47° |
| 2026-04-17 13:37 | 46.20704 | 11.09737 | 34227 ft | 454 kts | 48° |
| 2026-04-17 13:37 | 46.24598 | 11.16959 | 34203 ft | 457 kts | 48° |
| 2026-04-17 13:38 | 46.28481 | 11.24179 | 34236 ft | 454 kts | 48° |
| 2026-04-17 13:38 | 46.32360 | 11.31409 | 34129 ft | 455 kts | 48° |
| 2026-04-17 13:39 | 46.36238 | 11.38656 | 34126 ft | 455 kts | 47° |
| 2026-04-17 13:39 | 46.40112 | 11.45916 | 34118 ft | 455 kts | 48° |
| 2026-04-17 13:40 | 46.43972 | 11.53168 | 34066 ft | 454 kts | 48° |
| 2026-04-17 13:40 | 46.47822 | 11.60419 | 34095 ft | 454 kts | 48° |
| 2026-04-17 13:41 | 46.51647 | 11.67643 | 34100 ft | 454 kts | 48° |
| 2026-04-17 13:41 | 46.55506 | 11.74948 | 34109 ft | 455 kts | 48° |
| 2026-04-17 13:42 | 46.59364 | 11.82273 | 34107 ft | 454 kts | 48° |
| 2026-04-17 13:42 | 46.63197 | 11.89579 | 34122 ft | 454 kts | 48° |
| 2026-04-17 13:43 | 46.67015 | 11.96861 | 34127 ft | 456 kts | 48° |
| 2026-04-17 13:43 | 46.70867 | 12.04226 | 34127 ft | 457 kts | 48° |
| 2026-04-17 13:44 | 46.74727 | 12.11631 | 34140 ft | 459 kts | 48° |
| 2026-04-17 13:44 | 46.78588 | 12.19059 | 34175 ft | 459 kts | 48° |
| 2026-04-17 13:45 | 46.82437 | 12.26485 | 34188 ft | 459 kts | 48° |
| 2026-04-17 13:45 | 46.86281 | 12.33920 | 34191 ft | 459 kts | 48° |
| 2026-04-17 13:46 | 46.90120 | 12.41365 | 34175 ft | 458 kts | 48° |
| 2026-04-17 13:46 | 46.93951 | 12.48814 | 34154 ft | 458 kts | 48° |
| 2026-04-17 13:47 | 46.97768 | 12.56257 | 34163 ft | 456 kts | 48° |
| 2026-04-17 13:47 | 47.01551 | 12.63652 | 34151 ft | 455 kts | 48° |
| 2026-04-17 13:48 | 47.05328 | 12.71071 | 34172 ft | 453 kts | 48° |
| 2026-04-17 13:48 | 47.09103 | 12.78482 | 34192 ft | 452 kts | 49° |
| 2026-04-17 13:49 | 47.12872 | 12.85903 | 34166 ft | 454 kts | 49° |
| 2026-04-17 13:49 | 47.16645 | 12.93356 | 34186 ft | 455 kts | 49° |
| 2026-04-17 13:50 | 47.20427 | 13.00847 | 34177 ft | 457 kts | 49° |
| 2026-04-17 13:50 | 47.24213 | 13.08370 | 34182 ft | 458 kts | 49° |
| 2026-04-17 13:51 | 47.27970 | 13.15858 | 34190 ft | 458 kts | 49° |
| 2026-04-17 13:51 | 47.31757 | 13.23424 | 34194 ft | 459 kts | 49° |
| 2026-04-17 13:52 | 47.35549 | 13.31019 | 34167 ft | 459 kts | 49° |
| 2026-04-17 13:52 | 47.39319 | 13.38593 | 34192 ft | 458 kts | 49° |
| 2026-04-17 13:53 | 47.43085 | 13.46179 | 34214 ft | 458 kts | 49° |
| 2026-04-17 13:53 | 47.46854 | 13.53791 | 34199 ft | 459 kts | 48° |
| 2026-04-17 13:54 | 47.52479 | 13.65193 | 34193 ft | 459 kts | 48° |
| 2026-04-17 13:55 | 47.58114 | 13.76661 | 34184 ft | 458 kts | 49° |
| 2026-04-17 13:56 | 47.65607 | 13.91988 | 34184 ft | 458 kts | 48° |
| 2026-04-17 13:56 | 47.69335 | 13.99644 | 34212 ft | 458 kts | 48° |
| 2026-04-17 13:57 | 47.73066 | 14.07330 | 34201 ft | 458 kts | 48° |
| 2026-04-17 13:58 | 47.78626 | 14.18821 | 34209 ft | 458 kts | 48° |
| 2026-04-17 13:58 | 47.84196 | 14.30375 | 34189 ft | 457 kts | 48° |
| 2026-04-17 13:59 | 47.89737 | 14.41929 | 34174 ft | 456 kts | 48° |
| 2026-04-17 14:00 | 47.93140 | 14.49895 | 34195 ft | 461 kts | 55° |
| 2026-04-17 14:00 | 47.96163 | 14.58352 | 34215 ft | 461 kts | 56° |
| 2026-04-17 14:01 | 47.99154 | 14.66839 | 34192 ft | 461 kts | 56° |
| 2026-04-17 14:01 | 48.02168 | 14.75273 | 34177 ft | 460 kts | 55° |
| 2026-04-17 14:02 | 48.05195 | 14.83684 | 34186 ft | 459 kts | 55° |
| 2026-04-17 14:02 | 48.08223 | 14.92105 | 34185 ft | 460 kts | 55° |
| 2026-04-17 14:03 | 48.11223 | 15.00477 | 34188 ft | 460 kts | 55° |
| 2026-04-17 14:03 | 48.14239 | 15.08924 | 34185 ft | 460 kts | 55° |
| 2026-04-17 14:04 | 48.17250 | 15.17385 | 34196 ft | 460 kts | 55° |
| 2026-04-17 14:04 | 48.20254 | 15.25857 | 34185 ft | 460 kts | 55° |
| 2026-04-17 14:05 | 48.23246 | 15.34325 | 34186 ft | 458 kts | 55° |
| 2026-04-17 14:05 | 48.24742 | 15.38565 | 33803 ft | 463 kts | 56° |
| 2026-04-17 14:05 | 48.26251 | 15.42846 | 33187 ft | 461 kts | 56° |
| 2026-04-17 14:05 | 48.27721 | 15.47036 | 32504 ft | 459 kts | 56° |
| 2026-04-17 14:06 | 48.29209 | 15.51279 | 31817 ft | 458 kts | 56° |
| 2026-04-17 14:06 | 48.30690 | 15.55508 | 31085 ft | 458 kts | 56° |
| 2026-04-17 14:06 | 48.32171 | 15.59743 | 30333 ft | 458 kts | 56° |
| 2026-04-17 14:06 | 48.33655 | 15.63990 | 29451 ft | 458 kts | 56° |
| 2026-04-17 14:07 | 48.35133 | 15.68228 | 28611 ft | 457 kts | 56° |
| 2026-04-17 14:07 | 48.36610 | 15.72471 | 27734 ft | 457 kts | 56° |
| 2026-04-17 14:07 | 48.38073 | 15.76687 | 27161 ft | 451 kts | 56° |
| 2026-04-17 14:07 | 48.39494 | 15.80791 | 26529 ft | 446 kts | 56° |
| 2026-04-17 14:08 | 48.40920 | 15.84912 | 25952 ft | 441 kts | 56° |
| 2026-04-17 14:08 | 48.42333 | 15.89002 | 25371 ft | 437 kts | 56° |
| 2026-04-17 14:08 | 48.43728 | 15.93042 | 24789 ft | 433 kts | 56° |
| 2026-04-17 14:08 | 48.45112 | 15.97054 | 24194 ft | 430 kts | 57° |
| 2026-04-17 14:09 | 48.46485 | 16.01041 | 23575 ft | 428 kts | 57° |
| 2026-04-17 14:09 | 48.47852 | 16.05014 | 22901 ft | 425 kts | 57° |
| 2026-04-17 14:09 | 48.49202 | 16.08950 | 22316 ft | 420 kts | 57° |
| 2026-04-17 14:09 | 48.50518 | 16.12793 | 21759 ft | 415 kts | 57° |
| 2026-04-17 14:10 | 48.51836 | 16.16646 | 21175 ft | 412 kts | 57° |
| 2026-04-17 14:10 | 48.53144 | 16.20473 | 20593 ft | 409 kts | 57° |
| 2026-04-17 14:10 | 48.54442 | 16.24275 | 20041 ft | 406 kts | 57° |
| 2026-04-17 14:10 | 48.55727 | 16.28047 | 19483 ft | 403 kts | 57° |
| 2026-04-17 14:11 | 48.57005 | 16.31802 | 18910 ft | 400 kts | 57° |
| 2026-04-17 14:11 | 48.58271 | 16.35529 | 18366 ft | 398 kts | 57° |
| 2026-04-17 14:11 | 48.59530 | 16.39240 | 17711 ft | 396 kts | 57° |
| 2026-04-17 14:11 | 48.60781 | 16.42933 | 17142 ft | 392 kts | 57° |
| 2026-04-17 14:12 | 48.62016 | 16.46586 | 16590 ft | 388 kts | 58° |
| 2026-04-17 14:12 | 48.63238 | 16.50205 | 16049 ft | 384 kts | 58° |
| 2026-04-17 14:12 | 48.64447 | 16.53787 | 15512 ft | 381 kts | 58° |
| 2026-04-17 14:13 | 48.66835 | 16.60881 | 14456 ft | 376 kts | 59° |
| 2026-04-17 14:13 | 48.67999 | 16.64341 | 13926 ft | 373 kts | 59° |
| 2026-04-17 14:13 | 48.69173 | 16.67840 | 13336 ft | 370 kts | 59° |
| 2026-04-17 14:13 | 48.70337 | 16.71315 | 12785 ft | 368 kts | 59° |
| 2026-04-17 14:14 | 48.71524 | 16.74718 | 12251 ft | 363 kts | 53° |
| 2026-04-17 14:14 | 48.73250 | 16.77407 | 11746 ft | 351 kts | 30° |
| 2026-04-17 14:14 | 48.75434 | 16.78950 | 11302 ft | 342 kts | 13° |
| 2026-04-17 14:14 | 48.77724 | 16.79558 | 11076 ft | 329 kts | 2° |
| 2026-04-17 14:15 | 48.79971 | 16.79764 | 10928 ft | 318 kts | 1° |
| 2026-04-17 14:15 | 48.82169 | 16.79913 | 10317 ft | 324 kts | 1° |
| 2026-04-17 14:15 | 48.84424 | 16.80067 | 9677 ft | 322 kts | 1° |
| 2026-04-17 14:15 | 48.86645 | 16.80238 | 9022 ft | 318 kts | 1° |
| 2026-04-17 14:16 | 48.88846 | 16.80424 | 8368 ft | 314 kts | 2° |
| 2026-04-17 14:16 | 48.91011 | 16.80616 | 7746 ft | 310 kts | 2° |
| 2026-04-17 14:16 | 48.93155 | 16.80811 | 7120 ft | 306 kts | 2° |
| 2026-04-17 14:16 | 48.95271 | 16.81008 | 6510 ft | 302 kts | 2° |
| 2026-04-17 14:17 | 48.97357 | 16.81202 | 5933 ft | 296 kts | 2° |
| 2026-04-17 14:17 | 48.99387 | 16.81393 | 5427 ft | 289 kts | 1° |
| 2026-04-17 14:17 | 49.01366 | 16.81684 | 4910 ft | 284 kts | 12° |
| 2026-04-17 14:17 | 49.03115 | 16.83017 | 4376 ft | 283 kts | 37° |
| 2026-04-17 14:18 | 49.04329 | 16.85308 | 3870 ft | 283 kts | 60° |
| 2026-04-17 14:18 | 49.04942 | 16.88132 | 3394 ft | 282 kts | 79° |
| 2026-04-17 14:18 | 49.04857 | 16.91091 | 3136 ft | 273 kts | 95° |
| 2026-04-17 14:18 | 49.04600 | 16.93912 | 3031 ft | 266 kts | 94° |
| 2026-04-17 14:19 | 49.04344 | 16.96705 | 3001 ft | 266 kts | 94° |
| 2026-04-17 14:19 | 49.04314 | 16.99467 | 3010 ft | 256 kts | 71° |
| 2026-04-17 14:19 | 49.04810 | 17.01033 | 2999 ft | 243 kts | 49° |
| 2026-04-17 14:19 | 49.06484 | 17.02790 | 2994 ft | 203 kts | 17° |
| 2026-04-17 14:20 | 49.07776 | 17.03187 | 2991 ft | 175 kts | 4° |
| 2026-04-17 14:20 | 49.08916 | 17.03113 | 2983 ft | 157 kts | 350° |
| 2026-04-17 14:20 | 49.09940 | 17.02575 | 3048 ft | 163 kts | 341° |
| 2026-04-17 14:20 | 49.10647 | 17.02120 | 3048 ft | 168 kts | 339° |
| 2026-04-17 14:21 | 49.11673 | 17.01324 | 3020 ft | 162 kts | 322° |
| 2026-04-17 14:21 | 49.12327 | 16.99927 | 2999 ft | 163 kts | 301° |
| 2026-04-17 14:21 | 49.12587 | 16.98222 | 3012 ft | 168 kts | 283° |
| 2026-04-17 14:21 | 49.12791 | 16.95952 | 2994 ft | 157 kts | 284° |
| 2026-04-17 14:22 | 49.12889 | 16.94849 | 3022 ft | 157 kts | 284° |
| 2026-04-17 14:22 | 49.13036 | 16.93213 | 3008 ft | 158 kts | 284° |
| 2026-04-17 14:22 | 49.13204 | 16.91537 | 3005 ft | 160 kts | 285° |
| 2026-04-17 14:22 | 49.13372 | 16.89866 | 2998 ft | 159 kts | 283° |
| 2026-04-17 14:23 | 49.13518 | 16.88199 | 2967 ft | 159 kts | 282° |
| 2026-04-17 14:23 | 49.13661 | 16.86522 | 2790 ft | 159 kts | 283° |
| 2026-04-17 14:23 | 49.13801 | 16.84873 | 2573 ft | 153 kts | 283° |
| 2026-04-17 14:23 | 49.13917 | 16.83241 | 2358 ft | 156 kts | 281° |
| 2026-04-17 14:24 | 49.14032 | 16.81582 | 2188 ft | 157 kts | 281° |
| 2026-04-17 14:24 | 49.14159 | 16.79922 | 1990 ft | 157 kts | 283° |
| 2026-04-17 14:24 | 49.14321 | 16.78298 | 1804 ft | 153 kts | 284° |
| 2026-04-17 14:24 | 49.14436 | 16.76665 | 1601 ft | 160 kts | 280° |
| 2026-04-17 14:25 | 49.14604 | 16.75001 | 1410 ft | 157 kts | 284° |
| 2026-04-17 14:25 | 49.14773 | 16.73331 | 1173 ft | 158 kts | 283° |
| 2026-04-17 14:25 | 49.14915 | 16.71705 | 927 ft | 149 kts | 284° |
| 2026-04-17 14:25 | 49.15057 | 16.70168 | 778 ft | 145 kts | 283° |
| 2026-04-17 14:26 | 49.15187 | 16.68720 | 774 ft | 111 kts | 276° |
| 2026-04-17 14:26 | 49.15236 | 16.68156 | 772 ft | 28 kts | 279° |
| 2026-04-17 14:26 | 49.15267 | 16.67858 | 776 ft | 35 kts | 278° |
| 2026-04-17 14:26 | 49.15325 | 16.67619 | 773 ft | 24 kts | 349° |
| 2026-04-17 14:27 | 49.15402 | 16.67630 | 772 ft | 0 kts | 10° |
| 2026-04-17 14:27 | 49.15444 | 16.67644 | 771 ft | 13 kts | 20° |
| 2026-04-17 14:27 | 49.15463 | 16.67786 | 771 ft | 22 kts | 97° |
| 2026-04-17 14:27 | 49.15437 | 16.68084 | 777 ft | 33 kts | 98° |
| 2026-04-17 14:28 | 49.15406 | 16.68448 | 780 ft | 35 kts | 96° |
| 2026-04-17 14:28 | 49.15376 | 16.68801 | 780 ft | 30 kts | 97° |
| 2026-04-17 14:28 | 49.15354 | 16.69044 | 781 ft | 20 kts | 98° |
| 2026-04-17 14:28 | 49.15351 | 16.69124 | 781 ft | 2 kts | 73° |
| 2026-04-17 14:29 | 49.15361 | 16.69138 | 782 ft | 2 kts | 32° |
| 2026-04-17 14:29 | 49.15374 | 16.69144 | 782 ft | 2 kts | 12° |
| 2026-04-17 14:29 | 49.15374 | 16.69145 | 782 ft | 0 kts | 12° |